sensor_id;sensor_type;location;lat;lon;timestamp;temperature;humidity
71184;DHT22;58887;51.980;4.464;2023-04-25T00:01:28;7.92;75.18
71184;DHT22;58887;51.980;4.464;2023-04-25T00:03:54;8.00;74.65
71184;DHT22;58887;51.980;4.464;2023-04-25T00:06:19;7.95;74.65
71184;DHT22;58887;51.980;4.464;2023-04-25T00:08:45;7.99;74.70
71184;DHT22;58887;51.980;4.464;2023-04-25T00:11:10;7.92;74.86
71184;DHT22;58887;51.980;4.464;2023-04-25T00:13:36;7.96;74.83
71184;DHT22;58887;51.980;4.464;2023-04-25T00:16:01;7.83;74.69
71184;DHT22;58887;51.980;4.464;2023-04-25T00:18:27;7.75;74.86
71184;DHT22;58887;51.980;4.464;2023-04-25T00:20:55;7.79;74.63
71184;DHT22;58887;51.980;4.464;2023-04-25T00:23:21;7.78;74.25
71184;DHT22;58887;51.980;4.464;2023-04-25T00:25:48;7.79;74.09
71184;DHT22;58887;51.980;4.464;2023-04-25T00:28:14;7.76;74.23
71184;DHT22;58887;51.980;4.464;2023-04-25T00:30:41;7.71;74.30
71184;DHT22;58887;51.980;4.464;2023-04-25T00:33:07;7.76;73.76
71184;DHT22;58887;51.980;4.464;2023-04-25T00:35:32;7.71;73.95
71184;DHT22;58887;51.980;4.464;2023-04-25T00:37:59;7.69;73.53
71184;DHT22;58887;51.980;4.464;2023-04-25T00:40:24;7.62;73.71
71184;DHT22;58887;51.980;4.464;2023-04-25T00:42:52;7.59;74.31
71184;DHT22;58887;51.980;4.464;2023-04-25T00:45:19;7.69;74.16
71184;DHT22;58887;51.980;4.464;2023-04-25T00:47:45;7.72;74.34
71184;DHT22;58887;51.980;4.464;2023-04-25T00:50:12;7.72;74.02
71184;DHT22;58887;51.980;4.464;2023-04-25T00:52:43;7.90;73.57
71184;DHT22;58887;51.980;4.464;2023-04-25T00:55:11;8.02;73.29
71184;DHT22;58887;51.980;4.464;2023-04-25T00:57:37;8.04;73.29
71184;DHT22;58887;51.980;4.464;2023-04-25T01:00:05;8.03;73.17
71184;DHT22;58887;51.980;4.464;2023-04-25T01:02:33;8.12;72.98
71184;DHT22;58887;51.980;4.464;2023-04-25T01:04:58;8.06;72.88
71184;DHT22;58887;51.980;4.464;2023-04-25T01:07:25;8.06;72.25
71184;DHT22;58887;51.980;4.464;2023-04-25T01:09:51;8.00;72.82
71184;DHT22;58887;51.980;4.464;2023-04-25T01:12:17;8.07;72.74
71184;DHT22;58887;51.980;4.464;2023-04-25T01:14:43;8.09;72.72
71184;DHT22;58887;51.980;4.464;2023-04-25T01:17:10;8.12;72.41
71184;DHT22;58887;51.980;4.464;2023-04-25T01:19:36;8.07;71.15
71184;DHT22;58887;51.980;4.464;2023-04-25T01:22:02;7.96;70.43
71184;DHT22;58887;51.980;4.464;2023-04-25T01:24:30;7.97;70.40
71184;DHT22;58887;51.980;4.464;2023-04-25T01:26:58;7.99;69.45
71184;DHT22;58887;51.980;4.464;2023-04-25T01:29:24;7.96;69.46
71184;DHT22;58887;51.980;4.464;2023-04-25T01:31:53;8.04;67.76
71184;DHT22;58887;51.980;4.464;2023-04-25T01:34:18;8.07;69.18
71184;DHT22;58887;51.980;4.464;2023-04-25T01:36:44;8.07;68.23
71184;DHT22;58887;51.980;4.464;2023-04-25T01:39:10;8.03;68.78
71184;DHT22;58887;51.980;4.464;2023-04-25T01:41:36;8.03;68.89
71184;DHT22;58887;51.980;4.464;2023-04-25T01:44:02;8.04;68.46
71184;DHT22;58887;51.980;4.464;2023-04-25T01:46:29;8.00;68.49
71184;DHT22;58887;51.980;4.464;2023-04-25T01:48:55;7.95;68.05
71184;DHT22;58887;51.980;4.464;2023-04-25T01:51:22;7.99;68.17
71184;DHT22;58887;51.980;4.464;2023-04-25T01:53:47;7.85;68.01
71184;DHT22;58887;51.980;4.464;2023-04-25T01:56:13;7.81;68.57
71184;DHT22;58887;51.980;4.464;2023-04-25T01:58:39;7.78;68.69
71184;DHT22;58887;51.980;4.464;2023-04-25T02:01:04;7.81;68.85
71184;DHT22;58887;51.980;4.464;2023-04-25T02:03:31;7.73;69.25
71184;DHT22;58887;51.980;4.464;2023-04-25T02:05:57;7.78;69.13
71184;DHT22;58887;51.980;4.464;2023-04-25T02:08:23;7.83;69.09
71184;DHT22;58887;51.980;4.464;2023-04-25T02:10:48;7.82;69.91
71184;DHT22;58887;51.980;4.464;2023-04-25T02:13:14;7.83;69.28
71184;DHT22;58887;51.980;4.464;2023-04-25T02:15:39;7.85;70.41
71184;DHT22;58887;51.980;4.464;2023-04-25T02:18:05;7.89;69.96
71184;DHT22;58887;51.980;4.464;2023-04-25T02:20:31;7.97;70.00
71184;DHT22;58887;51.980;4.464;2023-04-25T02:23:05;8.02;70.36
71184;DHT22;58887;51.980;4.464;2023-04-25T02:28:54;7.95;72.18
71184;DHT22;58887;51.980;4.464;2023-04-25T02:31:20;7.78;72.26
71184;DHT22;58887;51.980;4.464;2023-04-25T02:33:45;7.69;71.86
71184;DHT22;58887;51.980;4.464;2023-04-25T02:36:12;7.72;70.87
71184;DHT22;58887;51.980;4.464;2023-04-25T02:38:37;7.73;70.71
71184;DHT22;58887;51.980;4.464;2023-04-25T02:41:05;7.82;71.98
71184;DHT22;58887;51.980;4.464;2023-04-25T02:43:31;7.92;71.58
71184;DHT22;58887;51.980;4.464;2023-04-25T02:45:56;7.92;72.07
71184;DHT22;58887;51.980;4.464;2023-04-25T02:48:23;7.93;72.60
71184;DHT22;58887;51.980;4.464;2023-04-25T02:50:48;7.90;73.67
71184;DHT22;58887;51.980;4.464;2023-04-25T02:53:14;7.89;73.88
71184;DHT22;58887;51.980;4.464;2023-04-25T02:55:39;7.92;74.74
71184;DHT22;58887;51.980;4.464;2023-04-25T02:58:05;7.95;75.30
71184;DHT22;58887;51.980;4.464;2023-04-25T03:00:30;7.99;74.25
71184;DHT22;58887;51.980;4.464;2023-04-25T03:02:56;7.97;74.92
71184;DHT22;58887;51.980;4.464;2023-04-25T03:05:21;8.03;75.07
71184;DHT22;58887;51.980;4.464;2023-04-25T03:07:47;8.04;74.91
71184;DHT22;58887;51.980;4.464;2023-04-25T03:10:12;8.09;74.46
71184;DHT22;58887;51.980;4.464;2023-04-25T03:12:38;8.10;74.24
71184;DHT22;58887;51.980;4.464;2023-04-25T03:15:04;8.12;73.26
71184;DHT22;58887;51.980;4.464;2023-04-25T03:17:30;8.13;73.55
71184;DHT22;58887;51.980;4.464;2023-04-25T03:19:57;8.06;72.56
71184;DHT22;58887;51.980;4.464;2023-04-25T03:22:23;8.02;73.04
71184;DHT22;58887;51.980;4.464;2023-04-25T03:24:49;7.97;72.65
71184;DHT22;58887;51.980;4.464;2023-04-25T03:27:16;8.03;73.47
71184;DHT22;58887;51.980;4.464;2023-04-25T03:29:41;8.04;73.29
71184;DHT22;58887;51.980;4.464;2023-04-25T03:32:07;8.16;72.82
71184;DHT22;58887;51.980;4.464;2023-04-25T03:34:32;8.10;73.10
71184;DHT22;58887;51.980;4.464;2023-04-25T03:36:59;8.02;72.71
71184;DHT22;58887;51.980;4.464;2023-04-25T03:39:25;7.96;73.12
71184;DHT22;58887;51.980;4.464;2023-04-25T03:41:50;8.00;73.09
71184;DHT22;58887;51.980;4.464;2023-04-25T03:44:16;7.99;73.06
71184;DHT22;58887;51.980;4.464;2023-04-25T03:46:41;8.06;73.19
71184;DHT22;58887;51.980;4.464;2023-04-25T03:49:07;8.10;72.89
71184;DHT22;58887;51.980;4.464;2023-04-25T03:51:32;8.09;73.02
71184;DHT22;58887;51.980;4.464;2023-04-25T03:54:22;8.10;73.31
71184;DHT22;58887;51.980;4.464;2023-04-25T03:56:47;8.04;72.89
71184;DHT22;58887;51.980;4.464;2023-04-25T03:59:14;8.10;73.04
71184;DHT22;58887;51.980;4.464;2023-04-25T04:01:39;8.14;73.20
71184;DHT22;58887;51.980;4.464;2023-04-25T04:04:05;8.13;73.21
71184;DHT22;58887;51.980;4.464;2023-04-25T04:06:31;8.13;72.73
71184;DHT22;58887;51.980;4.464;2023-04-25T04:08:57;8.13;72.73
71184;DHT22;58887;51.980;4.464;2023-04-25T04:11:23;8.17;71.76
71184;DHT22;58887;51.980;4.464;2023-04-25T04:13:54;8.22;72.36
71184;DHT22;58887;51.980;4.464;2023-04-25T04:16:22;8.23;72.76
71184;DHT22;58887;51.980;4.464;2023-04-25T04:18:49;8.29;72.04
71184;DHT22;58887;51.980;4.464;2023-04-25T04:21:14;8.26;72.06
71184;DHT22;58887;51.980;4.464;2023-04-25T04:23:40;8.24;71.21
71184;DHT22;58887;51.980;4.464;2023-04-25T04:26:06;8.30;71.40
71184;DHT22;58887;51.980;4.464;2023-04-25T04:28:33;8.38;70.85
71184;DHT22;58887;51.980;4.464;2023-04-25T04:31:01;8.33;69.74
71184;DHT22;58887;51.980;4.464;2023-04-25T04:33:27;8.38;69.91
71184;DHT22;58887;51.980;4.464;2023-04-25T04:35:53;8.27;70.00
71184;DHT22;58887;51.980;4.464;2023-04-25T04:38:21;8.26;69.23
71184;DHT22;58887;51.980;4.464;2023-04-25T04:40:48;8.17;69.55
71184;DHT22;58887;51.980;4.464;2023-04-25T04:43:14;8.24;69.21
71184;DHT22;58887;51.980;4.464;2023-04-25T04:45:43;8.09;69.16
71184;DHT22;58887;51.980;4.464;2023-04-25T04:48:09;8.06;69.72
71184;DHT22;58887;51.980;4.464;2023-04-25T04:50:37;8.07;70.25
71184;DHT22;58887;51.980;4.464;2023-04-25T04:53:04;8.03;70.24
71184;DHT22;58887;51.980;4.464;2023-04-25T04:55:29;7.89;70.70
71184;DHT22;58887;51.980;4.464;2023-04-25T04:57:55;7.95;70.97
71184;DHT22;58887;51.980;4.464;2023-04-25T05:00:20;7.83;70.82
71184;DHT22;58887;51.980;4.464;2023-04-25T05:02:47;7.87;71.42
71184;DHT22;58887;51.980;4.464;2023-04-25T05:05:12;7.83;71.97
71184;DHT22;58887;51.980;4.464;2023-04-25T05:07:38;7.89;71.86
71184;DHT22;58887;51.980;4.464;2023-04-25T05:10:04;7.93;72.30
71184;DHT22;58887;51.980;4.464;2023-04-25T05:12:30;7.95;72.15
71184;DHT22;58887;51.980;4.464;2023-04-25T05:14:55;7.92;72.98
71184;DHT22;58887;51.980;4.464;2023-04-25T05:17:21;7.97;72.60
71184;DHT22;58887;51.980;4.464;2023-04-25T05:19:47;8.00;72.99
71184;DHT22;58887;51.980;4.464;2023-04-25T05:22:13;8.00;72.41
71184;DHT22;58887;51.980;4.464;2023-04-25T05:24:38;8.00;72.69
71184;DHT22;58887;51.980;4.464;2023-04-25T05:27:04;8.16;72.94
71184;DHT22;58887;51.980;4.464;2023-04-25T05:29:30;8.19;73.35
71184;DHT22;58887;51.980;4.464;2023-04-25T05:31:56;8.19;72.95
71184;DHT22;58887;51.980;4.464;2023-04-25T05:34:21;8.02;73.62
71184;DHT22;58887;51.980;4.464;2023-04-25T05:36:48;7.92;73.70
71184;DHT22;58887;51.980;4.464;2023-04-25T05:39:17;7.93;73.45
71184;DHT22;58887;51.980;4.464;2023-04-25T05:41:42;7.73;72.94
71184;DHT22;58887;51.980;4.464;2023-04-25T05:44:08;7.68;71.46
71184;DHT22;58887;51.980;4.464;2023-04-25T05:46:34;7.86;71.13
71184;DHT22;58887;51.980;4.464;2023-04-25T05:48:59;7.95;71.02
71184;DHT22;58887;51.980;4.464;2023-04-25T05:51:26;8.06;70.63
71184;DHT22;58887;51.980;4.464;2023-04-25T05:53:53;8.32;70.83
71184;DHT22;58887;51.980;4.464;2023-04-25T05:56:18;8.24;69.97
71184;DHT22;58887;51.980;4.464;2023-04-25T05:58:43;8.40;69.48
71184;DHT22;58887;51.980;4.464;2023-04-25T06:01:09;8.43;68.50
71184;DHT22;58887;51.980;4.464;2023-04-25T06:03:35;8.41;69.19
71184;DHT22;58887;51.980;4.464;2023-04-25T06:06:00;8.44;69.31
71184;DHT22;58887;51.980;4.464;2023-04-25T06:08:26;8.34;67.88
71184;DHT22;58887;51.980;4.464;2023-04-25T06:10:51;8.26;69.07
71184;DHT22;58887;51.980;4.464;2023-04-25T06:13:17;7.99;70.14
71184;DHT22;58887;51.980;4.464;2023-04-25T06:15:42;8.03;70.61
71184;DHT22;58887;51.980;4.464;2023-04-25T06:18:08;8.04;71.22
71184;DHT22;58887;51.980;4.464;2023-04-25T06:23:59;8.24;71.78
71184;DHT22;58887;51.980;4.464;2023-04-25T06:26:31;8.07;71.43
71184;DHT22;58887;51.980;4.464;2023-04-25T06:28:57;8.26;72.26
71184;DHT22;58887;51.980;4.464;2023-04-25T06:31:22;8.33;71.75
71184;DHT22;58887;51.980;4.464;2023-04-25T06:33:49;8.36;71.99
71184;DHT22;58887;51.980;4.464;2023-04-25T06:36:16;8.41;71.67
71184;DHT22;58887;51.980;4.464;2023-04-25T06:38:41;8.36;70.58
71184;DHT22;58887;51.980;4.464;2023-04-25T06:41:07;8.41;70.52
71184;DHT22;58887;51.980;4.464;2023-04-25T06:43:33;8.53;70.61
71184;DHT22;58887;51.980;4.464;2023-04-25T06:46:02;8.62;69.66
71184;DHT22;58887;51.980;4.464;2023-04-25T06:48:28;8.68;69.76
71184;DHT22;58887;51.980;4.464;2023-04-25T06:50:53;8.72;69.12
71184;DHT22;58887;51.980;4.464;2023-04-25T06:53:19;8.81;69.30
71184;DHT22;58887;51.980;4.464;2023-04-25T06:55:45;8.84;69.92
71184;DHT22;58887;51.980;4.464;2023-04-25T06:58:10;8.85;69.39
71184;DHT22;58887;51.980;4.464;2023-04-25T07:00:36;8.84;69.19
71184;DHT22;58887;51.980;4.464;2023-04-25T07:03:01;8.98;68.84
71184;DHT22;58887;51.980;4.464;2023-04-25T07:05:27;8.88;67.98
71184;DHT22;58887;51.980;4.464;2023-04-25T07:07:53;8.71;67.37
71184;DHT22;58887;51.980;4.464;2023-04-25T07:10:18;8.64;68.43
71184;DHT22;58887;51.980;4.464;2023-04-25T07:12:45;8.67;67.43
71184;DHT22;58887;51.980;4.464;2023-04-25T07:15:10;8.75;68.05
71184;DHT22;58887;51.980;4.464;2023-04-25T07:17:37;8.85;69.12
71184;DHT22;58887;51.980;4.464;2023-04-25T07:20:03;8.95;68.67
71184;DHT22;58887;51.980;4.464;2023-04-25T07:22:29;9.18;68.51
71184;DHT22;58887;51.980;4.464;2023-04-25T07:24:55;9.46;67.80
71184;DHT22;58887;51.980;4.464;2023-04-25T07:27:21;9.91;66.80
71184;DHT22;58887;51.980;4.464;2023-04-25T07:29:48;10.16;64.98
71184;DHT22;58887;51.980;4.464;2023-04-25T07:32:14;10.31;64.74
71184;DHT22;58887;51.980;4.464;2023-04-25T07:34:39;10.11;65.05
71184;DHT22;58887;51.980;4.464;2023-04-25T07:37:05;10.12;64.27
71184;DHT22;58887;51.980;4.464;2023-04-25T07:39:31;9.92;64.82
71184;DHT22;58887;51.980;4.464;2023-04-25T07:41:56;9.73;64.00
71184;DHT22;58887;51.980;4.464;2023-04-25T07:44:24;9.46;64.52
71184;DHT22;58887;51.980;4.464;2023-04-25T07:46:51;9.69;64.97
71184;DHT22;58887;51.980;4.464;2023-04-25T07:49:16;10.12;61.55
71184;DHT22;58887;51.980;4.464;2023-04-25T07:51:42;10.60;59.07
71184;DHT22;58887;51.980;4.464;2023-04-25T07:54:14;10.77;58.56
71184;DHT22;58887;51.980;4.464;2023-04-25T07:56:46;11.01;56.01
71184;DHT22;58887;51.980;4.464;2023-04-25T07:59:12;11.10;54.64
71184;DHT22;58887;51.980;4.464;2023-04-25T08:01:37;10.80;56.41
71184;DHT22;58887;51.980;4.464;2023-04-25T08:04:03;10.64;57.89
71184;DHT22;58887;51.980;4.464;2023-04-25T08:06:28;10.38;57.36
71184;DHT22;58887;51.980;4.464;2023-04-25T08:08:54;10.05;57.78
71184;DHT22;58887;51.980;4.464;2023-04-25T08:11:22;10.06;58.62
71184;DHT22;58887;51.980;4.464;2023-04-25T08:13:48;10.25;59.42
71184;DHT22;58887;51.980;4.464;2023-04-25T08:16:14;10.62;55.86
71184;DHT22;58887;51.980;4.464;2023-04-25T08:18:50;10.74;56.86
71184;DHT22;58887;51.980;4.464;2023-04-25T08:21:16;10.84;55.63
71184;DHT22;58887;51.980;4.464;2023-04-25T08:23:41;10.29;55.67
71184;DHT22;58887;51.980;4.464;2023-04-25T08:26:07;10.46;57.51
71184;DHT22;58887;51.980;4.464;2023-04-25T08:28:32;10.87;55.13
71184;DHT22;58887;51.980;4.464;2023-04-25T08:30:58;10.97;54.69
71184;DHT22;58887;51.980;4.464;2023-04-25T08:33:24;11.04;54.34
71184;DHT22;58887;51.980;4.464;2023-04-25T08:35:50;11.35;53.46
71184;DHT22;58887;51.980;4.464;2023-04-25T08:38:17;11.06;55.40
71184;DHT22;58887;51.980;4.464;2023-04-25T08:40:50;11.27;52.89
71184;DHT22;58887;51.980;4.464;2023-04-25T08:43:19;11.89;51.22
71184;DHT22;58887;51.980;4.464;2023-04-25T08:45:46;11.82;53.47
71184;DHT22;58887;51.980;4.464;2023-04-25T08:51:17;11.69;55.31
71184;DHT22;58887;51.980;4.464;2023-04-25T08:53:49;11.97;54.52
71184;DHT22;58887;51.980;4.464;2023-04-25T08:56:17;12.09;54.11
71184;DHT22;58887;51.980;4.464;2023-04-25T08:58:47;12.36;53.64
71184;DHT22;58887;51.980;4.464;2023-04-25T09:01:16;12.47;52.73
71184;DHT22;58887;51.980;4.464;2023-04-25T09:03:43;12.36;50.87
71184;DHT22;58887;51.980;4.464;2023-04-25T09:06:10;12.61;50.39
71184;DHT22;58887;51.980;4.464;2023-04-25T09:08:39;13.30;48.88
71184;DHT22;58887;51.980;4.464;2023-04-25T09:11:06;14.35;46.98
71184;DHT22;58887;51.980;4.464;2023-04-25T09:13:32;13.88;43.75
71184;DHT22;58887;51.980;4.464;2023-04-25T09:15:57;14.14;45.02
71184;DHT22;58887;51.980;4.464;2023-04-25T09:18:30;14.11;42.69
71184;DHT22;58887;51.980;4.464;2023-04-25T09:21:09;13.73;43.80
71184;DHT22;58887;51.980;4.464;2023-04-25T09:23:44;14.15;45.16
71184;DHT22;58887;51.980;4.464;2023-04-25T09:26:10;13.51;45.53
71184;DHT22;58887;51.980;4.464;2023-04-25T09:28:39;13.85;45.76
71184;DHT22;58887;51.980;4.464;2023-04-25T09:31:09;14.80;44.44
71184;DHT22;58887;51.980;4.464;2023-04-25T09:33:36;15.28;43.90
71184;DHT22;58887;51.980;4.464;2023-04-25T09:36:04;14.59;44.70
71184;DHT22;58887;51.980;4.464;2023-04-25T09:38:32;14.46;44.38
71184;DHT22;58887;51.980;4.464;2023-04-25T09:41:07;13.57;47.00
71184;DHT22;58887;51.980;4.464;2023-04-25T09:43:33;12.81;48.40
71184;DHT22;58887;51.980;4.464;2023-04-25T09:45:58;12.57;50.78
71184;DHT22;58887;51.980;4.464;2023-04-25T09:48:27;12.55;48.77
71184;DHT22;58887;51.980;4.464;2023-04-25T09:51:12;12.54;49.01
71184;DHT22;58887;51.980;4.464;2023-04-25T09:53:46;12.52;51.00
71184;DHT22;58887;51.980;4.464;2023-04-25T09:56:30;12.77;49.58
71184;DHT22;58887;51.980;4.464;2023-04-25T09:59:03;14.14;48.20
71184;DHT22;58887;51.980;4.464;2023-04-25T10:01:29;14.94;46.91
71184;DHT22;58887;51.980;4.464;2023-04-25T10:03:58;14.02;47.26
71184;DHT22;58887;51.980;4.464;2023-04-25T10:06:28;13.35;49.09
71184;DHT22;58887;51.980;4.464;2023-04-25T10:08:57;12.75;51.12
71184;DHT22;58887;51.980;4.464;2023-04-25T10:11:27;12.57;50.33
71184;DHT22;58887;51.980;4.464;2023-04-25T10:13:53;11.72;50.35
71184;DHT22;58887;51.980;4.464;2023-04-25T10:16:21;11.66;51.38
71184;DHT22;58887;51.980;4.464;2023-04-25T10:18:48;13.47;46.29
71184;DHT22;58887;51.980;4.464;2023-04-25T10:21:15;14.62;44.20
71184;DHT22;58887;51.980;4.464;2023-04-25T10:23:42;14.64;44.51
71184;DHT22;58887;51.980;4.464;2023-04-25T10:26:12;13.46;48.12
71184;DHT22;58887;51.980;4.464;2023-04-25T10:29:02;11.86;52.29
71184;DHT22;58887;51.980;4.464;2023-04-25T10:31:31;11.69;53.94
71184;DHT22;58887;51.980;4.464;2023-04-25T10:33:59;11.72;54.31
71184;DHT22;58887;51.980;4.464;2023-04-25T10:36:25;13.36;53.01
71184;DHT22;58887;51.980;4.464;2023-04-25T10:39:03;14.77;48.36
71184;DHT22;58887;51.980;4.464;2023-04-25T10:41:56;15.97;46.29
71184;DHT22;58887;51.980;4.464;2023-04-25T10:44:32;15.90;42.79
71184;DHT22;58887;51.980;4.464;2023-04-25T10:47:01;14.81;43.83
71184;DHT22;58887;51.980;4.464;2023-04-25T10:49:41;15.55;43.23
71184;DHT22;58887;51.980;4.464;2023-04-25T10:54:46;17.67;39.24
71184;DHT22;58887;51.980;4.464;2023-04-25T10:57:42;16.31;41.79
71184;DHT22;58887;51.980;4.464;2023-04-25T11:00:18;16.64;40.88
71184;DHT22;58887;51.980;4.464;2023-04-25T11:02:47;15.14;44.17
71184;DHT22;58887;51.980;4.464;2023-04-25T11:05:34;13.75;46.38
71184;DHT22;58887;51.980;4.464;2023-04-25T11:08:10;14.06;45.75
71184;DHT22;58887;51.980;4.464;2023-04-25T11:10:36;15.52;43.66
71184;DHT22;58887;51.980;4.464;2023-04-25T11:13:03;16.76;44.69
71184;DHT22;58887;51.980;4.464;2023-04-25T11:15:28;16.12;41.77
71184;DHT22;58887;51.980;4.464;2023-04-25T11:17:55;14.88;44.90
71184;DHT22;58887;51.980;4.464;2023-04-25T11:20:22;13.48;45.05
71184;DHT22;58887;51.980;4.464;2023-04-25T11:22:58;13.09;47.21
71184;DHT22;58887;51.980;4.464;2023-04-25T11:25:26;14.74;42.41
71184;DHT22;58887;51.980;4.464;2023-04-25T11:27:59;15.08;40.71
71184;DHT22;58887;51.980;4.464;2023-04-25T11:30:27;16.09;40.00
71184;DHT22;58887;51.980;4.464;2023-04-25T11:32:53;17.15;38.43
71184;DHT22;58887;51.980;4.464;2023-04-25T11:35:19;17.78;35.94
71184;DHT22;58887;51.980;4.464;2023-04-25T11:37:46;17.95;36.09
71184;DHT22;58887;51.980;4.464;2023-04-25T11:40:12;16.24;38.49
71184;DHT22;58887;51.980;4.464;2023-04-25T11:42:38;17.01;39.54
71184;DHT22;58887;51.980;4.464;2023-04-25T11:45:07;16.13;39.08
71184;DHT22;58887;51.980;4.464;2023-04-25T11:47:34;16.24;39.84
71184;DHT22;58887;51.980;4.464;2023-04-25T11:50:04;17.57;37.76
71184;DHT22;58887;51.980;4.464;2023-04-25T11:52:46;17.85;38.37
71184;DHT22;58887;51.980;4.464;2023-04-25T11:55:19;18.40;36.05
71184;DHT22;58887;51.980;4.464;2023-04-25T11:57:48;18.46;35.76
71184;DHT22;58887;51.980;4.464;2023-04-25T12:00:21;17.60;38.90
71184;DHT22;58887;51.980;4.464;2023-04-25T12:02:55;17.40;37.95
71184;DHT22;58887;51.980;4.464;2023-04-25T12:05:28;15.41;40.97
71184;DHT22;58887;51.980;4.464;2023-04-25T12:10:56;13.15;47.81
71184;DHT22;58887;51.980;4.464;2023-04-25T12:13:24;12.59;46.67
71184;DHT22;58887;51.980;4.464;2023-04-25T12:15:51;12.13;48.45
71184;DHT22;58887;51.980;4.464;2023-04-25T12:18:24;12.04;49.24
71184;DHT22;58887;51.980;4.464;2023-04-25T12:21:04;14.45;45.15
71184;DHT22;58887;51.980;4.464;2023-04-25T12:23:30;16.64;41.04
71184;DHT22;58887;51.980;4.464;2023-04-25T12:25:57;16.83;39.61
71184;DHT22;58887;51.980;4.464;2023-04-25T12:28:25;18.08;39.26
71184;DHT22;58887;51.980;4.464;2023-04-25T12:31:04;17.50;36.10
71184;DHT22;58887;51.980;4.464;2023-04-25T12:33:40;16.14;39.28
71184;DHT22;58887;51.980;4.464;2023-04-25T12:36:08;14.59;43.19
71184;DHT22;58887;51.980;4.464;2023-04-25T12:38:38;14.15;43.93
71184;DHT22;58887;51.980;4.464;2023-04-25T12:41:08;13.51;44.72
71184;DHT22;58887;51.980;4.464;2023-04-25T12:43:47;14.36;44.21
71184;DHT22;58887;51.980;4.464;2023-04-25T12:46:12;16.35;40.57
71184;DHT22;58887;51.980;4.464;2023-04-25T12:48:41;17.23;37.83
71184;DHT22;58887;51.980;4.464;2023-04-25T12:51:07;17.29;37.83
71184;DHT22;58887;51.980;4.464;2023-04-25T12:53:33;18.06;37.55
71184;DHT22;58887;51.980;4.464;2023-04-25T12:56:02;17.84;37.01
71184;DHT22;58887;51.980;4.464;2023-04-25T12:58:31;18.81;35.79
71184;DHT22;58887;51.980;4.464;2023-04-25T13:01:04;18.66;34.20
71184;DHT22;58887;51.980;4.464;2023-04-25T13:03:46;16.95;36.76
71184;DHT22;58887;51.980;4.464;2023-04-25T13:06:11;15.39;41.14
71184;DHT22;58887;51.980;4.464;2023-04-25T13:08:38;17.06;40.11
71184;DHT22;58887;51.980;4.464;2023-04-25T13:11:05;18.08;37.28
71184;DHT22;58887;51.980;4.464;2023-04-25T13:13:32;19.14;37.75
71184;DHT22;58887;51.980;4.464;2023-04-25T13:16:05;19.52;36.78
71184;DHT22;58887;51.980;4.464;2023-04-25T13:18:34;18.79;36.58
71184;DHT22;58887;51.980;4.464;2023-04-25T13:21:09;16.83;37.96
71184;DHT22;58887;51.980;4.464;2023-04-25T13:23:45;15.05;41.58
71184;DHT22;58887;51.980;4.464;2023-04-25T13:26:11;15.55;42.29
71184;DHT22;58887;51.980;4.464;2023-04-25T13:28:37;17.08;39.31
71184;DHT22;58887;51.980;4.464;2023-04-25T13:31:11;16.73;37.69
71184;DHT22;58887;51.980;4.464;2023-04-25T13:33:45;15.97;38.87
71184;DHT22;58887;51.980;4.464;2023-04-25T13:36:13;14.84;42.03
71184;DHT22;58887;51.980;4.464;2023-04-25T13:38:45;15.58;44.30
71184;DHT22;58887;51.980;4.464;2023-04-25T13:41:32;15.92;42.50
71184;DHT22;58887;51.980;4.464;2023-04-25T13:43:58;14.80;44.50
71184;DHT22;58887;51.980;4.464;2023-04-25T13:46:25;16.07;44.14
71184;DHT22;58887;51.980;4.464;2023-04-25T13:48:50;17.41;39.35
71184;DHT22;58887;51.980;4.464;2023-04-25T13:51:16;17.27;40.25
71184;DHT22;58887;51.980;4.464;2023-04-25T13:53:42;17.71;39.64
71184;DHT22;58887;51.980;4.464;2023-04-25T13:56:08;18.53;38.88
71184;DHT22;58887;51.980;4.464;2023-04-25T13:58:40;19.27;37.05
71184;DHT22;58887;51.980;4.464;2023-04-25T14:01:16;19.54;33.71
71184;DHT22;58887;51.980;4.464;2023-04-25T14:03:46;19.27;34.58
71184;DHT22;58887;51.980;4.464;2023-04-25T14:06:20;19.54;35.10
71184;DHT22;58887;51.980;4.464;2023-04-25T14:09:00;19.27;33.00
71184;DHT22;58887;51.980;4.464;2023-04-25T14:11:32;19.08;33.52
71184;DHT22;58887;51.980;4.464;2023-04-25T14:14:00;19.27;33.08
71184;DHT22;58887;51.980;4.464;2023-04-25T14:16:26;18.81;32.91
71184;DHT22;58887;51.980;4.464;2023-04-25T14:19:07;17.82;36.44
71184;DHT22;58887;51.980;4.464;2023-04-25T14:21:39;19.47;35.14
71184;DHT22;58887;51.980;4.464;2023-04-25T14:24:10;18.77;31.46
71184;DHT22;58887;51.980;4.464;2023-04-25T14:26:40;19.80;32.50
71184;DHT22;58887;51.980;4.464;2023-04-25T14:29:12;18.46;32.17
71184;DHT22;58887;51.980;4.464;2023-04-25T14:31:39;17.50;34.21
71184;DHT22;58887;51.980;4.464;2023-04-25T14:34:05;18.79;34.91
71184;DHT22;58887;51.980;4.464;2023-04-25T14:36:37;18.98;32.92
71184;DHT22;58887;51.980;4.464;2023-04-25T14:39:03;19.11;33.89
71184;DHT22;58887;51.980;4.464;2023-04-25T14:41:35;19.06;32.86
71184;DHT22;58887;51.980;4.464;2023-04-25T14:44:00;19.25;35.39
71184;DHT22;58887;51.980;4.464;2023-04-25T14:46:29;19.87;34.61
71184;DHT22;58887;51.980;4.464;2023-04-25T14:48:56;20.07;32.65
71184;DHT22;58887;51.980;4.464;2023-04-25T14:51:27;19.49;32.76
71184;DHT22;58887;51.980;4.464;2023-04-25T14:54:00;20.05;33.54
71184;DHT22;58887;51.980;4.464;2023-04-25T14:56:25;20.03;32.29
71184;DHT22;58887;51.980;4.464;2023-04-25T14:58:51;19.79;32.61
71184;DHT22;58887;51.980;4.464;2023-04-25T15:01:17;18.81;35.95
71184;DHT22;58887;51.980;4.464;2023-04-25T15:03:43;17.64;39.15
71184;DHT22;58887;51.980;4.464;2023-04-25T15:06:09;15.18;43.36
71184;DHT22;58887;51.980;4.464;2023-04-25T15:08:35;13.91;47.63
71184;DHT22;58887;51.980;4.464;2023-04-25T15:11:01;12.88;52.75
71184;DHT22;58887;51.980;4.464;2023-04-25T15:13:27;12.86;49.98
71184;DHT22;58887;51.980;4.464;2023-04-25T15:15:53;14.79;45.74
71184;DHT22;58887;51.980;4.464;2023-04-25T15:18:23;16.23;44.98
71184;DHT22;58887;51.980;4.464;2023-04-25T15:20:52;14.88;44.99
71184;DHT22;58887;51.980;4.464;2023-04-25T15:23:19;14.29;48.20
71184;DHT22;58887;51.980;4.464;2023-04-25T15:25:45;13.94;48.76
71184;DHT22;58887;51.980;4.464;2023-04-25T15:28:11;14.72;44.27
71184;DHT22;58887;51.980;4.464;2023-04-25T15:30:39;15.03;45.34
71184;DHT22;58887;51.980;4.464;2023-04-25T15:33:04;14.16;43.91
71184;DHT22;58887;51.980;4.464;2023-04-25T15:35:30;15.54;44.01
71184;DHT22;58887;51.980;4.464;2023-04-25T15:37:55;17.29;39.34
71184;DHT22;58887;51.980;4.464;2023-04-25T15:40:20;18.01;36.30
71184;DHT22;58887;51.980;4.464;2023-04-25T15:42:49;17.88;38.01
71184;DHT22;58887;51.980;4.464;2023-04-25T15:45:20;18.22;35.11
71184;DHT22;58887;51.980;4.464;2023-04-25T15:47:46;18.13;34.46
71184;DHT22;58887;51.980;4.464;2023-04-25T15:50:13;18.01;35.95
71184;DHT22;58887;51.980;4.464;2023-04-25T15:52:49;17.13;37.18
71184;DHT22;58887;51.980;4.464;2023-04-25T15:55:14;18.24;40.08
71184;DHT22;58887;51.980;4.464;2023-04-25T15:57:41;16.93;37.35